createdAt,value
2022-09-10T00:01:59.515Z,3.47
2022-09-10T00:04:28.045Z,2.13
2022-09-10T00:06:55.570Z,3.10
2022-09-10T00:09:23.062Z,2.70
2022-09-10T00:11:49.965Z,5.30
2022-09-10T00:14:20.480Z,4.85
2022-09-10T00:16:48.281Z,5.20
2022-09-10T00:19:16.510Z,2.58
2022-09-10T00:21:44.606Z,3.72
2022-09-10T00:24:12.112Z,2.88
2022-09-10T00:26:39.713Z,2.63
2022-09-10T00:29:12.570Z,4.88
2022-09-10T00:31:39.966Z,4.35
2022-09-10T00:34:09.089Z,2.05
2022-09-10T00:36:41.886Z,1.92
2022-09-10T00:39:11.472Z,2.72
2022-09-10T00:41:40.699Z,3.58
2022-09-10T00:44:43.656Z,3.58
2022-09-10T00:47:18.701Z,11.45
2022-09-10T00:49:49.775Z,2.75
2022-09-10T00:52:17.294Z,2.83
2022-09-10T00:54:46.826Z,3.08
2022-09-10T00:57:23.215Z,3.90
2022-09-10T00:59:56.273Z,3.72
2022-09-10T01:02:23.025Z,2.92
2022-09-10T01:04:50.516Z,2.70
2022-09-10T01:07:18.862Z,2.22
2022-09-10T01:09:45.773Z,2.85
2022-09-10T01:12:47.105Z,2.55
2022-09-10T01:15:23.239Z,5.07
2022-09-10T01:17:50.143Z,5.53
2022-09-10T01:21:05.780Z,3.50
2022-09-10T01:24:00.425Z,2.42
2022-09-10T01:27:03.889Z,2.00
2022-09-10T01:29:48.111Z,2.42
2022-09-10T01:32:23.314Z,2.00
2022-09-10T01:35:00.134Z,4.07
2022-09-10T01:37:30.151Z,2.63
2022-09-10T01:39:59.829Z,2.50
2022-09-10T01:42:29.564Z,2.42
2022-09-10T01:44:57.882Z,4.40
2022-09-10T01:48:06.245Z,2.90
2022-09-10T01:50:57.267Z,3.20
2022-09-10T01:53:49.398Z,2.63
2022-09-10T01:56:43.653Z,3.65
2022-09-10T01:59:39.274Z,3.30
2022-09-10T02:02:19.841Z,2.78
2022-09-10T02:04:50.405Z,2.38
2022-09-10T02:07:22.403Z,2.92
2022-09-10T02:09:51.849Z,4.50
2022-09-10T02:12:21.362Z,2.40
2022-09-10T02:14:56.685Z,3.60
2022-09-10T02:17:44.863Z,2.80
2022-09-10T02:20:16.325Z,3.63
2022-09-10T02:22:50.046Z,3.78
2022-09-10T02:25:18.330Z,3.97
2022-09-10T02:27:45.368Z,2.90
2022-09-10T02:30:12.558Z,4.18
2022-09-10T02:32:39.611Z,5.25
2022-09-10T02:35:07.078Z,4.38
2022-09-10T02:37:33.839Z,4.07
2022-09-10T02:40:00.639Z,3.83
2022-09-10T02:42:27.638Z,3.67
2022-09-10T02:44:54.387Z,3.78
2022-09-10T02:47:21.138Z,7.72
2022-09-10T02:49:47.891Z,3.10
2022-09-10T02:52:14.724Z,3.50
2022-09-10T02:54:41.523Z,4.30
2022-09-10T02:57:11.899Z,2.90
2022-09-10T02:59:38.806Z,6.10
2022-09-10T03:02:05.657Z,3.20
2022-09-10T03:04:32.420Z,4.95
2022-09-10T03:06:59.628Z,4.75
2022-09-10T03:09:28.805Z,5.32
2022-09-10T03:11:55.696Z,6.13
2022-09-10T03:14:24.593Z,3.25
2022-09-10T03:16:51.421Z,4.30
2022-09-10T03:19:18.272Z,3.50
2022-09-10T03:21:47.588Z,4.63
2022-09-10T03:24:15.557Z,3.03
2022-09-10T03:26:44.407Z,6.22
2022-09-10T03:29:11.932Z,5.68
2022-09-10T03:31:40.204Z,6.05
2022-09-10T03:34:07.293Z,4.53
2022-09-10T03:36:34.038Z,4.82
2022-09-10T03:39:01.095Z,3.45
2022-09-10T03:41:31.943Z,3.05
2022-09-10T03:43:59.417Z,5.38
2022-09-10T03:46:27.377Z,3.60
2022-09-10T03:48:57.101Z,4.05
2022-09-10T03:51:25.609Z,3.10
2022-09-10T03:53:52.379Z,3.00
2022-09-10T03:56:21.304Z,3.70
2022-09-10T03:58:49.245Z,3.28
2022-09-10T04:01:17.080Z,3.38
2022-09-10T04:03:47.257Z,3.42
2022-09-10T04:06:16.256Z,4.43
2022-09-10T04:08:46.203Z,3.35
2022-09-10T04:11:15.180Z,5.95
2022-09-10T04:13:42.919Z,3.38
2022-09-10T04:16:11.986Z,3.03
2022-09-10T04:18:39.878Z,3.67
2022-09-10T04:21:06.761Z,2.95
2022-09-10T04:23:34.808Z,2.80
2022-09-10T04:26:18.349Z,4.63
2022-09-10T04:28:48.017Z,8.18
2022-09-10T04:31:17.292Z,3.05
2022-09-10T04:33:45.218Z,4.65
2022-09-10T04:36:15.746Z,5.72
2022-09-10T04:38:44.083Z,5.28
2022-09-10T04:41:15.568Z,3.90
2022-09-10T04:43:43.570Z,8.50
2022-09-10T04:46:10.552Z,3.47
2022-09-10T04:48:40.238Z,3.00
2022-09-10T04:51:17.184Z,8.23
2022-09-10T04:53:47.267Z,2.60
2022-09-10T04:56:14.625Z,2.80
2022-09-10T04:58:43.151Z,3.13
2022-09-10T05:01:11.498Z,3.60
2022-09-10T05:03:38.374Z,5.03
2022-09-10T05:06:06.848Z,3.20
2022-09-10T05:08:34.166Z,3.42
2022-09-10T05:11:03.921Z,3.55
2022-09-10T05:13:31.805Z,4.80
2022-09-10T05:16:00.110Z,4.72
2022-09-10T05:18:27.032Z,4.00
2022-09-10T05:20:54.323Z,4.50
2022-09-10T05:23:21.125Z,7.75
2022-09-10T05:25:48.709Z,3.00
2022-09-10T05:28:20.830Z,4.03
2022-09-10T05:30:51.549Z,6.10
2022-09-10T05:33:22.066Z,4.13
2022-09-10T05:35:52.644Z,6.70
2022-09-10T05:38:21.041Z,5.20
2022-09-10T05:40:48.749Z,3.95
2022-09-10T05:43:15.590Z,4.32
2022-09-10T05:45:44.581Z,3.30
2022-09-10T05:48:11.378Z,4.07
2022-09-10T05:50:38.558Z,4.70
2022-09-10T05:53:05.706Z,4.28
2022-09-10T05:55:33.260Z,4.03
2022-09-10T05:58:00.649Z,4.72
2022-09-10T06:00:27.864Z,5.63
2022-09-10T06:03:00.855Z,3.47
2022-09-10T06:05:32.445Z,5.72
2022-09-10T06:08:06.540Z,5.90
2022-09-10T06:10:37.334Z,4.30
2022-09-10T06:13:04.253Z,3.78
2022-09-10T06:15:31.014Z,2.97
2022-09-10T06:17:58.428Z,4.43
2022-09-10T06:20:26.238Z,5.25
2022-09-10T06:22:53.150Z,3.70
2022-09-10T06:25:20.120Z,4.97
2022-09-10T06:27:47.753Z,3.60
2022-09-10T06:30:16.617Z,6.40
2022-09-10T06:32:47.056Z,3.05
2022-09-10T06:35:14.228Z,2.65
2022-09-10T06:37:41.072Z,2.78
2022-09-10T06:40:09.932Z,3.10
2022-09-10T06:42:37.086Z,4.07
2022-09-10T06:45:18.008Z,3.40
2022-09-10T06:50:51.601Z,3.72
2022-09-10T06:53:19.027Z,2.20
2022-09-10T06:55:46.238Z,2.63
2022-09-10T06:58:13.412Z,3.28
2022-09-10T07:00:40.240Z,3.00
2022-09-10T07:03:07.080Z,2.10
2022-09-10T07:05:34.320Z,3.05
2022-09-10T07:08:02.292Z,5.13
2022-09-10T07:10:31.383Z,5.88
2022-09-10T07:12:58.354Z,3.95
2022-09-10T07:15:25.330Z,2.60
2022-09-10T07:17:52.136Z,3.97
2022-09-10T07:20:23.263Z,2.25
2022-09-10T07:22:55.222Z,3.08
2022-09-10T07:25:25.248Z,4.10
2022-09-10T07:28:02.501Z,3.53
2022-09-10T07:30:32.430Z,3.63
2022-09-10T07:32:59.602Z,2.20
2022-09-10T07:35:28.552Z,2.42
2022-09-10T07:37:55.693Z,3.28
2022-09-10T07:40:23.479Z,4.25
2022-09-10T07:42:52.474Z,2.22
2022-09-10T07:45:19.659Z,3.53
2022-09-10T07:47:48.116Z,3.53
2022-09-10T07:50:15.731Z,3.45
2022-09-10T07:52:42.817Z,3.40
2022-09-10T07:55:10.303Z,2.25
2022-09-10T07:57:39.710Z,3.72
2022-09-10T08:00:15.010Z,3.67
2022-09-10T08:02:50.934Z,4.43
2022-09-10T08:05:21.032Z,3.45
2022-09-10T08:07:53.787Z,4.93
2022-09-10T08:10:21.620Z,5.30
2022-09-10T08:12:50.033Z,6.75
2022-09-10T08:15:17.167Z,2.75
2022-09-10T08:17:44.455Z,2.75
2022-09-10T08:20:11.398Z,3.30
2022-09-10T08:22:43.189Z,3.60
2022-09-10T08:25:10.953Z,4.15
2022-09-10T08:27:38.604Z,3.67
2022-09-10T08:30:08.955Z,3.60
2022-09-10T08:32:37.096Z,2.33
2022-09-10T08:35:06.879Z,3.95
2022-09-10T08:37:34.248Z,5.40
2022-09-10T08:40:03.188Z,3.42
2022-09-10T08:42:45.928Z,4.53
2022-09-10T08:45:22.356Z,2.90
2022-09-10T08:48:17.404Z,3.08
2022-09-10T08:50:55.032Z,5.20
2022-09-10T08:53:46.184Z,3.60
2022-09-10T08:56:23.336Z,3.45
2022-09-10T08:59:17.165Z,6.32
2022-09-10T09:02:37.819Z,5.53
2022-09-10T09:05:22.821Z,4.28
2022-09-10T09:07:53.425Z,5.60
2022-09-10T09:10:20.751Z,4.35
2022-09-10T09:13:26.554Z,3.63
2022-09-10T09:16:06.722Z,4.55
2022-09-10T09:19:06.088Z,4.38
2022-09-10T09:21:52.326Z,6.13
2022-09-10T09:24:25.658Z,7.75
2022-09-10T09:27:02.231Z,3.40
2022-09-10T09:29:34.497Z,6.88
2022-09-10T09:32:05.392Z,4.07
2022-09-10T09:35:23.850Z,6.10
2022-09-10T09:38:07.283Z,5.53
2022-09-10T09:40:46.693Z,6.55
2022-09-10T09:43:27.763Z,5.43
2022-09-10T09:45:54.933Z,5.85
2022-09-10T09:48:23.801Z,6.28
2022-09-10T09:51:00.299Z,6.32
2022-09-10T09:53:29.212Z,7.17
2022-09-10T09:56:01.234Z,5.85
2022-09-10T09:58:31.485Z,4.57
2022-09-10T10:01:04.718Z,4.40
2022-09-10T10:03:35.746Z,4.32
2022-09-10T10:06:11.445Z,5.97
2022-09-10T10:08:41.253Z,11.82
2022-09-10T10:11:09.234Z,5.00
2022-09-10T10:13:45.561Z,4.72
2022-09-10T10:16:24.151Z,6.35
2022-09-10T10:18:51.019Z,6.60
2022-09-10T10:21:32.612Z,6.78
2022-09-10T10:24:00.554Z,6.68
2022-09-10T10:26:30.379Z,6.35
2022-09-10T10:29:19.295Z,5.63
2022-09-10T10:31:50.379Z,7.60
2022-09-10T10:34:32.492Z,5.68
2022-09-10T10:37:37.397Z,7.10
2022-09-10T10:40:07.036Z,7.72
2022-09-10T10:42:59.216Z,6.38
2022-09-10T10:45:28.956Z,5.72
2022-09-10T10:48:28.396Z,7.10
2022-09-10T10:51:36.473Z,6.53
2022-09-10T10:54:28.450Z,7.93
2022-09-10T10:57:16.803Z,8.00
2022-09-10T10:59:53.606Z,7.88
2022-09-10T11:02:20.455Z,8.18
2022-09-10T11:04:50.975Z,7.10
2022-09-10T11:07:41.000Z,8.57
2022-09-10T11:10:34.240Z,8.68
2022-09-10T11:13:09.644Z,11.15
2022-09-10T11:15:40.194Z,8.05
2022-09-10T11:18:46.206Z,8.07
2022-09-10T11:21:21.686Z,5.93
2022-09-10T11:24:15.001Z,8.18
2022-09-10T11:26:54.150Z,10.13
2022-09-10T11:29:25.971Z,6.55
2022-09-10T11:32:15.780Z,6.63
2022-09-10T11:35:29.841Z,7.00
2022-09-10T11:38:34.275Z,6.93
2022-09-10T11:41:11.058Z,6.95
2022-09-10T11:43:37.985Z,6.90
2022-09-10T11:46:12.490Z,9.15
2022-09-10T11:49:07.225Z,8.15
2022-09-10T11:51:37.341Z,7.00
2022-09-10T11:54:07.290Z,7.45
2022-09-10T11:56:49.535Z,5.57
2022-09-10T11:59:42.473Z,6.25
2022-09-10T12:02:27.355Z,5.80
2022-09-10T12:05:07.472Z,5.63
2022-09-10T12:07:44.452Z,7.38
2022-09-10T12:10:43.646Z,5.15
2022-09-10T12:13:13.946Z,4.95
2022-09-10T12:15:49.245Z,2.92
2022-09-10T12:18:23.014Z,3.70
2022-09-10T12:20:57.157Z,3.70
2022-09-10T12:23:31.363Z,5.68
2022-09-10T12:26:01.102Z,4.40
2022-09-10T12:28:43.396Z,5.93
2022-09-10T12:31:15.232Z,3.13
2022-09-10T12:33:44.750Z,4.47
2022-09-10T12:36:32.923Z,3.92
2022-09-10T12:39:23.499Z,4.55
2022-09-10T12:41:50.216Z,5.57
2022-09-10T12:44:36.022Z,3.85
2022-09-10T12:47:17.939Z,2.63
2022-09-10T12:49:51.628Z,3.08
2022-09-10T12:52:28.293Z,2.08
2022-09-10T12:55:28.935Z,2.97
2022-09-10T12:58:11.744Z,2.97
2022-09-10T13:00:48.930Z,3.88
2022-09-10T13:03:18.180Z,5.32
2022-09-10T13:05:44.874Z,2.10
2022-09-10T13:08:28.084Z,3.33
2022-09-10T13:11:01.364Z,1.98
2022-09-10T13:13:56.442Z,1.73
2022-09-10T13:16:26.540Z,1.40
2022-09-10T13:19:13.226Z,2.25
2022-09-10T13:24:35.761Z,2.42
2022-09-10T13:27:04.391Z,1.70
2022-09-10T13:29:38.376Z,1.10
2022-09-10T13:32:20.343Z,1.38
2022-09-10T13:35:24.199Z,2.45
2022-09-10T13:38:08.320Z,1.10
2022-09-10T13:41:02.580Z,2.53
2022-09-10T13:44:06.596Z,2.00
2022-09-10T13:46:41.701Z,2.00
2022-09-10T13:49:26.769Z,1.17
2022-09-10T13:52:03.089Z,0.88
2022-09-10T13:54:34.995Z,1.70
2022-09-10T13:57:12.058Z,1.88
2022-09-10T13:59:41.449Z,1.40
2022-09-10T14:02:08.426Z,2.03
2022-09-10T14:04:39.936Z,1.45
2022-09-10T14:07:15.900Z,2.35
2022-09-10T14:10:02.346Z,1.45
2022-09-10T14:12:34.630Z,1.98
2022-09-10T14:15:05.474Z,1.77
2022-09-10T14:17:38.845Z,2.47
2022-09-10T14:20:29.322Z,2.75
2022-09-10T14:23:03.029Z,1.38
2022-09-10T14:25:32.328Z,1.33
2022-09-10T14:28:22.497Z,2.15
2022-09-10T14:30:51.080Z,1.10
2022-09-10T14:33:34.305Z,1.08
2022-09-10T14:36:29.327Z,1.75
2022-09-10T14:39:05.195Z,2.58
2022-09-10T14:41:35.886Z,1.35
2022-09-10T14:44:23.098Z,1.27
2022-09-10T14:46:57.302Z,1.20
2022-09-10T14:49:35.415Z,1.15
2022-09-10T14:52:03.506Z,1.67
2022-09-10T14:54:32.226Z,2.67
2022-09-10T14:57:03.809Z,2.60
2022-09-10T14:59:34.518Z,0.80
2022-09-10T15:02:06.030Z,3.50
2022-09-10T15:04:32.768Z,1.05
2022-09-10T15:07:00.576Z,1.90
2022-09-10T15:09:28.779Z,1.33
2022-09-10T15:12:05.829Z,2.45
2022-09-10T15:14:33.584Z,0.80
2022-09-10T15:17:00.599Z,1.42
2022-09-10T15:19:27.876Z,1.45
2022-09-10T15:21:54.796Z,1.23
2022-09-10T15:24:22.932Z,1.65
2022-09-10T15:26:50.303Z,1.05
2022-09-10T15:29:17.978Z,1.33
2022-09-10T15:31:45.083Z,3.65
2022-09-10T15:34:12.168Z,2.28
2022-09-10T15:36:40.326Z,2.72
2022-09-10T15:39:08.392Z,1.30
2022-09-10T15:41:35.100Z,1.40
2022-09-10T15:44:03.178Z,1.33
2022-09-10T15:46:30.155Z,1.30
2022-09-10T15:48:59.475Z,2.40
2022-09-10T15:51:26.871Z,0.90
2022-09-10T15:53:55.336Z,1.25
2022-09-10T15:56:30.500Z,1.98
2022-09-10T15:58:58.110Z,1.95
2022-09-10T16:01:28.105Z,1.30
2022-09-10T16:03:57.325Z,0.75
2022-09-10T16:06:27.645Z,0.90
2022-09-10T16:08:57.931Z,1.58
2022-09-10T16:11:25.417Z,1.63
2022-09-10T16:13:52.466Z,1.92
2022-09-10T16:16:21.658Z,1.45
2022-09-10T16:18:51.337Z,2.33
2022-09-10T16:21:23.724Z,1.50
2022-09-10T16:23:52.415Z,1.00
2022-09-10T16:26:23.009Z,2.88
2022-09-10T16:28:54.259Z,1.25
2022-09-10T16:31:26.495Z,1.70
2022-09-10T16:33:55.212Z,2.55
2022-09-10T16:36:23.489Z,1.10
2022-09-10T16:38:55.750Z,2.75
2022-09-10T16:41:24.025Z,1.30
2022-09-10T16:43:51.410Z,3.55
2022-09-10T16:46:18.494Z,1.30
2022-09-10T16:48:45.699Z,2.00
2022-09-10T16:51:15.604Z,2.85
2022-09-10T16:53:44.300Z,1.20
2022-09-10T16:56:16.122Z,2.45
2022-09-10T16:58:48.181Z,1.38
2022-09-10T17:01:15.877Z,2.95
2022-09-10T17:03:50.514Z,2.50
2022-09-10T17:06:19.989Z,3.20
2022-09-10T17:08:47.382Z,3.17
2022-09-10T17:11:16.791Z,3.67
2022-09-10T17:13:44.012Z,2.30
2022-09-10T17:16:16.792Z,3.85
2022-09-10T17:18:47.910Z,3.22
2022-09-10T17:21:14.698Z,3.20
2022-09-10T17:23:41.593Z,2.20
2022-09-10T17:26:09.590Z,1.98
2022-09-10T17:28:36.875Z,5.15
2022-09-10T17:31:04.838Z,5.30
2022-09-10T17:33:33.393Z,2.55
2022-09-10T17:36:03.491Z,2.78
2022-09-10T17:38:33.430Z,3.05
2022-09-10T17:41:03.154Z,3.17
2022-09-10T17:43:34.058Z,4.22
2022-09-10T17:46:09.335Z,6.20
2022-09-10T17:48:37.937Z,4.77
2022-09-10T17:51:06.159Z,5.30
2022-09-10T17:53:33.535Z,3.80
2022-09-10T17:56:05.618Z,3.28
2022-09-10T17:58:33.277Z,3.80
2022-09-10T18:01:02.314Z,4.35
2022-09-10T18:03:31.495Z,8.18
2022-09-10T18:06:06.835Z,4.05
2022-09-10T18:08:34.560Z,3.97
2022-09-10T18:11:10.400Z,3.15
2022-09-10T18:13:37.737Z,3.20
2022-09-10T18:16:10.354Z,2.42
2022-09-10T18:18:38.155Z,5.22
2022-09-10T18:21:17.000Z,2.45
2022-09-10T18:23:44.332Z,3.13
2022-09-10T18:26:16.048Z,5.15
2022-09-10T18:28:44.104Z,3.90
2022-09-10T18:31:11.589Z,5.38
2022-09-10T18:33:40.282Z,6.45
2022-09-10T18:36:15.347Z,5.07
2022-09-10T18:38:43.071Z,6.97
2022-09-10T18:41:24.707Z,7.68
2022-09-10T18:43:53.897Z,11.88
2022-09-10T18:46:21.319Z,8.10
2022-09-10T18:48:48.441Z,9.48
2022-09-10T18:51:18.242Z,7.25
2022-09-10T18:53:46.011Z,11.90
2022-09-10T18:56:16.755Z,9.95
2022-09-10T18:58:52.564Z,15.05
2022-09-10T19:01:20.061Z,13.82
2022-09-10T19:03:48.126Z,12.95
2022-09-10T19:06:18.749Z,13.27
2022-09-10T19:08:53.376Z,13.50
2022-09-10T19:11:24.438Z,14.35
2022-09-10T19:13:53.674Z,16.50
2022-09-10T19:16:23.203Z,13.90
2022-09-10T19:18:55.255Z,13.98
2022-09-10T19:21:23.618Z,14.43
2022-09-10T19:23:53.431Z,16.55
2022-09-10T19:26:25.104Z,17.92
2022-09-10T19:28:52.456Z,16.90
2022-09-10T19:31:20.963Z,16.83
2022-09-10T19:33:48.478Z,16.33
2022-09-10T19:36:17.665Z,19.70
2022-09-10T19:38:46.918Z,20.42
2022-09-10T19:41:18.877Z,16.60
2022-09-10T19:43:50.636Z,19.05
2022-09-10T19:46:19.464Z,16.45
2022-09-10T19:48:47.086Z,18.65
2022-09-10T19:51:20.205Z,22.42
2022-09-10T19:53:48.180Z,16.80
2022-09-10T19:56:21.263Z,17.65
2022-09-10T19:58:53.039Z,20.02
2022-09-10T20:01:26.103Z,24.85
2022-09-10T20:03:54.122Z,22.77
2022-09-10T20:06:25.439Z,21.15
2022-09-10T20:08:52.761Z,21.10
2022-09-10T20:11:22.800Z,26.10
2022-09-10T20:13:53.355Z,23.55
2022-09-10T20:16:20.271Z,20.65
2022-09-10T20:18:47.117Z,22.75
2022-09-10T20:21:26.881Z,22.27
2022-09-10T20:23:58.022Z,22.45
2022-09-10T20:26:30.576Z,24.80
2022-09-10T20:29:03.742Z,22.67
2022-09-10T20:31:32.460Z,23.90
2022-09-10T20:34:01.200Z,22.55
2022-09-10T20:36:28.942Z,24.23
2022-09-10T20:38:56.220Z,23.88
2022-09-10T20:41:24.005Z,27.85
2022-09-10T20:43:54.220Z,23.88
2022-09-10T20:46:22.524Z,24.15
2022-09-10T20:48:50.857Z,25.23
2022-09-10T20:51:47.097Z,29.15
2022-09-10T20:54:16.865Z,23.48
2022-09-10T20:57:12.832Z,23.05
2022-09-10T20:59:40.063Z,22.65
2022-09-10T21:02:08.470Z,23.35
2022-09-10T21:04:35.762Z,23.35
2022-09-10T21:07:03.211Z,24.30
2022-09-10T21:09:30.080Z,23.23
2022-09-10T21:12:24.300Z,21.60
2022-09-10T21:14:53.855Z,22.95
2022-09-10T21:18:11.775Z,20.60
2022-09-10T21:20:38.603Z,22.00
2022-09-10T21:23:20.198Z,22.98
2022-09-10T21:25:51.632Z,20.52
2022-09-10T21:28:21.610Z,20.80
2022-09-10T21:31:02.558Z,18.20
2022-09-10T21:33:46.261Z,21.77
2022-09-10T21:36:18.233Z,19.27
2022-09-10T21:39:11.912Z,19.45
2022-09-10T21:41:44.733Z,20.90
2022-09-10T21:44:17.468Z,18.17
2022-09-10T21:46:48.764Z,19.63
2022-09-10T21:49:16.200Z,21.55
2022-09-10T21:51:43.447Z,24.58
2022-09-10T21:54:16.990Z,22.17
2022-09-10T21:56:43.965Z,20.95
2022-09-10T22:02:32.544Z,17.90
2022-09-10T22:04:59.430Z,22.75
2022-09-10T22:07:26.417Z,21.75
2022-09-10T22:09:53.196Z,24.23
2022-09-10T22:12:19.934Z,18.65
2022-09-10T22:14:46.766Z,24.50
2022-09-10T22:17:13.904Z,21.33
2022-09-10T22:20:07.035Z,18.75
2022-09-10T22:22:34.271Z,18.17
2022-09-10T22:25:01.182Z,19.83
2022-09-10T22:27:27.969Z,18.58
2022-09-10T22:29:56.753Z,21.20
2022-09-10T22:32:23.625Z,17.38
2022-09-10T22:34:50.365Z,38.47
2022-09-10T22:37:17.924Z,25.10
2022-09-10T22:39:44.709Z,20.05
2022-09-10T22:42:11.433Z,19.73
2022-09-10T22:44:38.166Z,23.70
2022-09-10T22:47:04.987Z,19.50
2022-09-10T22:49:31.734Z,25.77
2022-09-10T22:51:58.464Z,20.77
2022-09-10T22:54:25.243Z,26.75
2022-09-10T22:56:51.949Z,21.88
2022-09-10T22:59:18.693Z,24.02
2022-09-10T23:01:48.360Z,23.08
2022-09-10T23:04:16.321Z,21.00
2022-09-10T23:06:43.082Z,24.55
2022-09-10T23:09:15.531Z,21.13
2022-09-10T23:11:44.447Z,25.83
2022-09-10T23:14:17.884Z,24.33
2022-09-10T23:16:49.719Z,24.02
2022-09-10T23:19:19.856Z,24.83
2022-09-10T23:21:48.886Z,24.45
2022-09-10T23:24:18.366Z,24.42
2022-09-10T23:26:45.341Z,29.00
2022-09-10T23:29:13.128Z,20.05
2022-09-10T23:31:40.943Z,24.95
2022-09-10T23:34:11.388Z,25.17
2022-09-10T23:36:40.729Z,25.70
2022-09-10T23:39:11.593Z,22.73
2022-09-10T23:41:39.174Z,26.35
2022-09-10T23:44:06.636Z,26.80
2022-09-10T23:46:34.392Z,29.50
2022-09-10T23:49:02.119Z,27.35
2022-09-10T23:51:29.189Z,28.73
2022-09-10T23:53:56.142Z,31.98
2022-09-10T23:56:25.555Z,30.30
2022-09-10T23:58:52.435Z,28.73
